sensor_id;sensor_type;location;lat;lon;timestamp;temperature;humidity
21031;DHT22;61072;47.808;7.636;2023-02-08T00:00:42;-0.70;99.90
21031;DHT22;61072;47.808;7.636;2023-02-08T00:03:09;-0.70;99.90
21031;DHT22;61072;47.808;7.636;2023-02-08T00:05:36;-0.70;99.90
21031;DHT22;61072;47.808;7.636;2023-02-08T00:08:04;-0.70;99.90
21031;DHT22;61072;47.808;7.636;2023-02-08T00:10:31;-0.70;99.90
21031;DHT22;61072;47.808;7.636;2023-02-08T00:12:57;-0.70;99.90
21031;DHT22;61072;47.808;7.636;2023-02-08T00:15:24;-0.70;99.90
21031;DHT22;61072;47.808;7.636;2023-02-08T00:17:51;-0.70;99.90
21031;DHT22;61072;47.808;7.636;2023-02-08T00:20:18;-0.80;99.90
21031;DHT22;61072;47.808;7.636;2023-02-08T00:22:44;-0.80;99.90
21031;DHT22;61072;47.808;7.636;2023-02-08T00:25:11;-0.80;99.90
21031;DHT22;61072;47.808;7.636;2023-02-08T00:27:38;-0.80;99.90
21031;DHT22;61072;47.808;7.636;2023-02-08T00:30:05;-0.80;99.90
21031;DHT22;61072;47.808;7.636;2023-02-08T00:32:32;-0.80;99.90
21031;DHT22;61072;47.808;7.636;2023-02-08T00:34:59;-0.80;99.90
21031;DHT22;61072;47.808;7.636;2023-02-08T00:37:25;-0.80;99.90
21031;DHT22;61072;47.808;7.636;2023-02-08T00:39:52;-0.80;99.90
21031;DHT22;61072;47.808;7.636;2023-02-08T00:42:19;-0.90;99.90
21031;DHT22;61072;47.808;7.636;2023-02-08T00:44:45;-0.90;99.90
21031;DHT22;61072;47.808;7.636;2023-02-08T00:47:12;-0.90;99.90
21031;DHT22;61072;47.808;7.636;2023-02-08T00:49:39;-0.90;99.90
21031;DHT22;61072;47.808;7.636;2023-02-08T00:52:06;-0.90;99.90
21031;DHT22;61072;47.808;7.636;2023-02-08T00:54:32;-0.90;99.90
21031;DHT22;61072;47.808;7.636;2023-02-08T00:56:59;-0.90;99.90
21031;DHT22;61072;47.808;7.636;2023-02-08T00:59:26;-0.90;99.90
21031;DHT22;61072;47.808;7.636;2023-02-08T01:01:53;-1.00;99.90
21031;DHT22;61072;47.808;7.636;2023-02-08T01:04:20;-1.00;99.90
21031;DHT22;61072;47.808;7.636;2023-02-08T01:06:46;-1.00;99.90
21031;DHT22;61072;47.808;7.636;2023-02-08T01:09:13;-1.00;99.90
21031;DHT22;61072;47.808;7.636;2023-02-08T01:11:40;-1.00;99.90
21031;DHT22;61072;47.808;7.636;2023-02-08T01:14:06;-1.10;99.90
21031;DHT22;61072;47.808;7.636;2023-02-08T01:16:33;-1.10;99.90
21031;DHT22;61072;47.808;7.636;2023-02-08T01:19:02;-1.10;99.90
21031;DHT22;61072;47.808;7.636;2023-02-08T01:21:32;-1.10;99.90
21031;DHT22;61072;47.808;7.636;2023-02-08T01:23:59;-1.20;99.90
21031;DHT22;61072;47.808;7.636;2023-02-08T01:26:27;-1.20;99.90
21031;DHT22;61072;47.808;7.636;2023-02-08T01:28:54;-1.20;99.90
21031;DHT22;61072;47.808;7.636;2023-02-08T01:31:29;-1.20;99.90
21031;DHT22;61072;47.808;7.636;2023-02-08T01:33:57;-1.20;99.90
21031;DHT22;61072;47.808;7.636;2023-02-08T01:36:24;-1.20;99.90
21031;DHT22;61072;47.808;7.636;2023-02-08T01:38:52;-1.20;99.90
21031;DHT22;61072;47.808;7.636;2023-02-08T01:41:22;-1.20;99.90
21031;DHT22;61072;47.808;7.636;2023-02-08T01:46:24;-1.30;99.90
21031;DHT22;61072;47.808;7.636;2023-02-08T01:48:51;-1.30;99.90
21031;DHT22;61072;47.808;7.636;2023-02-08T01:51:21;-1.30;99.90
21031;DHT22;61072;47.808;7.636;2023-02-08T01:53:49;-1.30;99.90
21031;DHT22;61072;47.808;7.636;2023-02-08T01:56:32;-1.30;99.90
21031;DHT22;61072;47.808;7.636;2023-02-08T01:59:02;-1.30;99.90
21031;DHT22;61072;47.808;7.636;2023-02-08T02:01:31;-1.40;99.90
21031;DHT22;61072;47.808;7.636;2023-02-08T02:04:05;-1.40;99.90
21031;DHT22;61072;47.808;7.636;2023-02-08T02:06:34;-1.40;99.90
21031;DHT22;61072;47.808;7.636;2023-02-08T02:09:13;-1.40;99.90
21031;DHT22;61072;47.808;7.636;2023-02-08T02:11:42;-1.40;99.90
21031;DHT22;61072;47.808;7.636;2023-02-08T02:14:09;-1.40;99.90
21031;DHT22;61072;47.808;7.636;2023-02-08T02:16:36;-1.40;99.90
21031;DHT22;61072;47.808;7.636;2023-02-08T02:19:13;-1.50;99.90
21031;DHT22;61072;47.808;7.636;2023-02-08T02:27:39;-1.50;99.90
21031;DHT22;61072;47.808;7.636;2023-02-08T02:35:37;-1.50;99.90
21031;DHT22;61072;47.808;7.636;2023-02-08T02:38:24;-1.50;99.90
21031;DHT22;61072;47.808;7.636;2023-02-08T02:44:12;-1.60;99.90
21031;DHT22;61072;47.808;7.636;2023-02-08T02:46:45;-1.60;99.90
21031;DHT22;61072;47.808;7.636;2023-02-08T02:49:18;-1.60;99.90
21031;DHT22;61072;47.808;7.636;2023-02-08T02:51:55;-1.60;99.90
21031;DHT22;61072;47.808;7.636;2023-02-08T02:54:32;-1.60;99.90
21031;DHT22;61072;47.808;7.636;2023-02-08T02:57:03;-1.60;99.90
21031;DHT22;61072;47.808;7.636;2023-02-08T02:59:33;-1.60;99.90
21031;DHT22;61072;47.808;7.636;2023-02-08T03:02:01;-1.60;99.90
21031;DHT22;61072;47.808;7.636;2023-02-08T03:15:07;-1.70;99.90
21031;DHT22;61072;47.808;7.636;2023-02-08T03:20:28;-1.70;99.90
21031;DHT22;61072;47.808;7.636;2023-02-08T03:28:22;-1.80;99.90
21031;DHT22;61072;47.808;7.636;2023-02-08T03:36:20;-1.80;99.90
21031;DHT22;61072;47.808;7.636;2023-02-08T03:38:52;-1.80;99.90
21031;DHT22;61072;47.808;7.636;2023-02-08T03:41:25;-1.80;99.90
21031;DHT22;61072;47.808;7.636;2023-02-08T03:44:08;-1.90;99.90
21031;DHT22;61072;47.808;7.636;2023-02-08T03:46:39;-1.90;99.90
21031;DHT22;61072;47.808;7.636;2023-02-08T03:49:12;-1.90;99.90
21031;DHT22;61072;47.808;7.636;2023-02-08T03:51:43;-1.90;99.90
21031;DHT22;61072;47.808;7.636;2023-02-08T03:54:18;-1.90;99.90
21031;DHT22;61072;47.808;7.636;2023-02-08T03:56:58;-1.90;99.90
21031;DHT22;61072;47.808;7.636;2023-02-08T03:59:36;-2.00;99.90
21031;DHT22;61072;47.808;7.636;2023-02-08T04:02:06;-2.00;99.90
21031;DHT22;61072;47.808;7.636;2023-02-08T04:04:36;-2.00;99.90
21031;DHT22;61072;47.808;7.636;2023-02-08T04:07:05;-2.00;99.90
21031;DHT22;61072;47.808;7.636;2023-02-08T04:09:32;-2.00;99.90
21031;DHT22;61072;47.808;7.636;2023-02-08T04:11:58;-2.00;99.90
21031;DHT22;61072;47.808;7.636;2023-02-08T04:14:25;-2.00;99.90
21031;DHT22;61072;47.808;7.636;2023-02-08T04:16:52;-2.10;99.90
21031;DHT22;61072;47.808;7.636;2023-02-08T04:19:18;-2.10;99.90
21031;DHT22;61072;47.808;7.636;2023-02-08T04:21:45;-2.10;99.90
21031;DHT22;61072;47.808;7.636;2023-02-08T04:24:12;-2.10;99.90
21031;DHT22;61072;47.808;7.636;2023-02-08T04:26:39;-2.10;99.90
21031;DHT22;61072;47.808;7.636;2023-02-08T04:29:05;-2.10;99.90
21031;DHT22;61072;47.808;7.636;2023-02-08T04:31:32;-2.10;99.90
21031;DHT22;61072;47.808;7.636;2023-02-08T04:33:59;-2.10;99.90
21031;DHT22;61072;47.808;7.636;2023-02-08T04:36:25;-2.10;99.90
21031;DHT22;61072;47.808;7.636;2023-02-08T04:38:52;-2.10;99.90
21031;DHT22;61072;47.808;7.636;2023-02-08T04:41:19;-2.20;99.90
21031;DHT22;61072;47.808;7.636;2023-02-08T04:43:46;-2.20;99.90
21031;DHT22;61072;47.808;7.636;2023-02-08T04:46:12;-2.20;99.90
21031;DHT22;61072;47.808;7.636;2023-02-08T04:48:39;-2.30;99.90
21031;DHT22;61072;47.808;7.636;2023-02-08T04:51:06;-2.30;99.90
21031;DHT22;61072;47.808;7.636;2023-02-08T04:53:33;-2.30;99.90
21031;DHT22;61072;47.808;7.636;2023-02-08T04:56:00;-2.30;99.90
21031;DHT22;61072;47.808;7.636;2023-02-08T04:58:26;-2.30;99.90
21031;DHT22;61072;47.808;7.636;2023-02-08T05:00:53;-2.30;99.90
21031;DHT22;61072;47.808;7.636;2023-02-08T05:03:20;-2.40;99.90
21031;DHT22;61072;47.808;7.636;2023-02-08T05:05:55;-2.30;99.90
21031;DHT22;61072;47.808;7.636;2023-02-08T05:08:23;-2.40;99.90
21031;DHT22;61072;47.808;7.636;2023-02-08T05:10:50;-2.40;99.90
21031;DHT22;61072;47.808;7.636;2023-02-08T05:13:16;-2.40;99.90
21031;DHT22;61072;47.808;7.636;2023-02-08T05:15:43;-2.40;99.90
21031;DHT22;61072;47.808;7.636;2023-02-08T05:18:10;-2.40;99.90
21031;DHT22;61072;47.808;7.636;2023-02-08T05:20:36;-2.40;99.90
21031;DHT22;61072;47.808;7.636;2023-02-08T05:23:03;-2.40;99.90
21031;DHT22;61072;47.808;7.636;2023-02-08T05:25:31;-2.40;99.90
21031;DHT22;61072;47.808;7.636;2023-02-08T05:27:58;-2.40;99.90
21031;DHT22;61072;47.808;7.636;2023-02-08T05:30:25;-2.40;99.90
21031;DHT22;61072;47.808;7.636;2023-02-08T05:32:52;-2.40;99.90
21031;DHT22;61072;47.808;7.636;2023-02-08T05:35:19;-2.40;99.90
21031;DHT22;61072;47.808;7.636;2023-02-08T05:37:45;-2.40;99.90
21031;DHT22;61072;47.808;7.636;2023-02-08T05:40:12;-2.50;99.90
21031;DHT22;61072;47.808;7.636;2023-02-08T05:42:38;-2.50;99.90
21031;DHT22;61072;47.808;7.636;2023-02-08T05:45:07;-2.50;99.90
21031;DHT22;61072;47.808;7.636;2023-02-08T05:47:35;-2.50;99.90
21031;DHT22;61072;47.808;7.636;2023-02-08T05:50:02;-2.50;99.90
21031;DHT22;61072;47.808;7.636;2023-02-08T05:52:29;-2.50;99.90
21031;DHT22;61072;47.808;7.636;2023-02-08T05:54:56;-2.50;99.90
21031;DHT22;61072;47.808;7.636;2023-02-08T05:57:22;-2.50;99.90
21031;DHT22;61072;47.808;7.636;2023-02-08T05:59:49;-2.50;99.90
21031;DHT22;61072;47.808;7.636;2023-02-08T06:02:16;-2.50;99.90
21031;DHT22;61072;47.808;7.636;2023-02-08T06:04:42;-2.50;99.90
21031;DHT22;61072;47.808;7.636;2023-02-08T06:07:09;-2.50;99.90
21031;DHT22;61072;47.808;7.636;2023-02-08T06:09:36;-2.50;99.90
21031;DHT22;61072;47.808;7.636;2023-02-08T06:12:03;-2.50;99.90
21031;DHT22;61072;47.808;7.636;2023-02-08T06:14:29;-2.50;99.90
21031;DHT22;61072;47.808;7.636;2023-02-08T06:16:56;-2.50;99.90
21031;DHT22;61072;47.808;7.636;2023-02-08T06:19:23;-2.50;99.90
21031;DHT22;61072;47.808;7.636;2023-02-08T06:21:50;-2.50;99.90
21031;DHT22;61072;47.808;7.636;2023-02-08T06:24:16;-2.50;99.90
21031;DHT22;61072;47.808;7.636;2023-02-08T06:26:43;-2.50;99.90
21031;DHT22;61072;47.808;7.636;2023-02-08T06:29:10;-2.50;99.90
21031;DHT22;61072;47.808;7.636;2023-02-08T06:31:37;-2.50;99.90
21031;DHT22;61072;47.808;7.636;2023-02-08T06:34:04;-2.50;99.90
21031;DHT22;61072;47.808;7.636;2023-02-08T06:36:30;-2.60;99.90
21031;DHT22;61072;47.808;7.636;2023-02-08T06:38:57;-2.50;99.90
21031;DHT22;61072;47.808;7.636;2023-02-08T06:41:24;-2.60;99.90
21031;DHT22;61072;47.808;7.636;2023-02-08T06:43:51;-2.60;99.90
21031;DHT22;61072;47.808;7.636;2023-02-08T06:46:17;-2.60;99.90
21031;DHT22;61072;47.808;7.636;2023-02-08T06:48:44;-2.60;99.90
21031;DHT22;61072;47.808;7.636;2023-02-08T06:51:11;-2.60;99.90
21031;DHT22;61072;47.808;7.636;2023-02-08T06:53:37;-2.60;99.90
21031;DHT22;61072;47.808;7.636;2023-02-08T06:56:04;-2.60;99.90
21031;DHT22;61072;47.808;7.636;2023-02-08T06:58:31;-2.60;99.90
21031;DHT22;61072;47.808;7.636;2023-02-08T07:00:58;-2.60;99.90
21031;DHT22;61072;47.808;7.636;2023-02-08T07:03:24;-2.60;99.90
21031;DHT22;61072;47.808;7.636;2023-02-08T07:05:51;-2.70;99.90
21031;DHT22;61072;47.808;7.636;2023-02-08T07:08:32;-2.70;99.90
21031;DHT22;61072;47.808;7.636;2023-02-08T07:10:58;-2.70;99.90
21031;DHT22;61072;47.808;7.636;2023-02-08T07:13:25;-2.70;99.90
21031;DHT22;61072;47.808;7.636;2023-02-08T07:15:51;-2.70;99.90
21031;DHT22;61072;47.808;7.636;2023-02-08T07:18:18;-2.70;99.90
21031;DHT22;61072;47.808;7.636;2023-02-08T07:20:45;-2.70;99.90
21031;DHT22;61072;47.808;7.636;2023-02-08T07:23:11;-2.70;99.90
21031;DHT22;61072;47.808;7.636;2023-02-08T07:25:38;-2.70;99.90
21031;DHT22;61072;47.808;7.636;2023-02-08T07:28:05;-2.70;99.90
21031;DHT22;61072;47.808;7.636;2023-02-08T07:30:31;-2.70;99.90
21031;DHT22;61072;47.808;7.636;2023-02-08T07:32:58;-2.70;99.90
21031;DHT22;61072;47.808;7.636;2023-02-08T07:35:25;-2.70;99.90
21031;DHT22;61072;47.808;7.636;2023-02-08T07:37:52;-2.70;99.90
21031;DHT22;61072;47.808;7.636;2023-02-08T07:40:19;-2.70;99.90
21031;DHT22;61072;47.808;7.636;2023-02-08T07:42:46;-2.70;99.90
21031;DHT22;61072;47.808;7.636;2023-02-08T07:45:12;-2.70;99.90
21031;DHT22;61072;47.808;7.636;2023-02-08T07:47:39;-2.70;99.90
21031;DHT22;61072;47.808;7.636;2023-02-08T07:50:06;-2.70;99.90
21031;DHT22;61072;47.808;7.636;2023-02-08T07:52:32;-2.70;99.90
21031;DHT22;61072;47.808;7.636;2023-02-08T07:54:59;-2.70;99.90
21031;DHT22;61072;47.808;7.636;2023-02-08T07:57:26;-2.70;99.90
21031;DHT22;61072;47.808;7.636;2023-02-08T07:59:52;-2.60;99.90
21031;DHT22;61072;47.808;7.636;2023-02-08T08:02:19;-2.60;99.90
21031;DHT22;61072;47.808;7.636;2023-02-08T08:04:46;-2.60;99.90
21031;DHT22;61072;47.808;7.636;2023-02-08T08:07:13;-2.60;99.90
21031;DHT22;61072;47.808;7.636;2023-02-08T08:09:40;-2.50;99.90
21031;DHT22;61072;47.808;7.636;2023-02-08T08:12:06;-2.50;99.90
21031;DHT22;61072;47.808;7.636;2023-02-08T08:14:33;-2.50;99.90
21031;DHT22;61072;47.808;7.636;2023-02-08T08:17:00;-2.50;99.90
21031;DHT22;61072;47.808;7.636;2023-02-08T08:19:26;-2.40;99.90
21031;DHT22;61072;47.808;7.636;2023-02-08T08:21:56;-2.40;99.90
21031;DHT22;61072;47.808;7.636;2023-02-08T08:24:23;-2.40;99.90
21031;DHT22;61072;47.808;7.636;2023-02-08T08:26:50;-2.40;99.90
21031;DHT22;61072;47.808;7.636;2023-02-08T08:29:17;-2.30;99.90
21031;DHT22;61072;47.808;7.636;2023-02-08T08:31:43;-2.30;99.90
21031;DHT22;61072;47.808;7.636;2023-02-08T08:34:10;-2.20;99.90
21031;DHT22;61072;47.808;7.636;2023-02-08T08:36:37;-2.20;99.90
21031;DHT22;61072;47.808;7.636;2023-02-08T08:39:04;-2.20;99.90
21031;DHT22;61072;47.808;7.636;2023-02-08T08:41:30;-2.20;99.90
21031;DHT22;61072;47.808;7.636;2023-02-08T08:43:57;-2.10;99.90
21031;DHT22;61072;47.808;7.636;2023-02-08T08:46:24;-2.10;99.90
21031;DHT22;61072;47.808;7.636;2023-02-08T08:48:51;-2.00;99.90
21031;DHT22;61072;47.808;7.636;2023-02-08T08:51:17;-2.00;99.90
21031;DHT22;61072;47.808;7.636;2023-02-08T08:53:44;-2.00;99.90
21031;DHT22;61072;47.808;7.636;2023-02-08T08:56:11;-1.90;99.90
21031;DHT22;61072;47.808;7.636;2023-02-08T08:58:37;-1.90;99.90
21031;DHT22;61072;47.808;7.636;2023-02-08T09:01:04;-1.80;99.90
21031;DHT22;61072;47.808;7.636;2023-02-08T09:03:31;-1.80;99.90
21031;DHT22;61072;47.808;7.636;2023-02-08T09:05:58;-1.70;99.90
21031;DHT22;61072;47.808;7.636;2023-02-08T09:08:24;-1.70;99.90
21031;DHT22;61072;47.808;7.636;2023-02-08T09:10:51;-1.70;99.90
21031;DHT22;61072;47.808;7.636;2023-02-08T09:13:18;-1.60;99.90
21031;DHT22;61072;47.808;7.636;2023-02-08T09:15:47;-1.60;99.90
21031;DHT22;61072;47.808;7.636;2023-02-08T09:18:14;-1.60;99.90
21031;DHT22;61072;47.808;7.636;2023-02-08T09:20:41;-1.50;99.90
21031;DHT22;61072;47.808;7.636;2023-02-08T09:23:09;-1.50;99.90
21031;DHT22;61072;47.808;7.636;2023-02-08T09:25:36;-1.40;99.90
21031;DHT22;61072;47.808;7.636;2023-02-08T09:28:03;-1.40;99.90
21031;DHT22;61072;47.808;7.636;2023-02-08T09:30:31;-1.40;99.90
21031;DHT22;61072;47.808;7.636;2023-02-08T09:32:57;-1.40;99.90
21031;DHT22;61072;47.808;7.636;2023-02-08T09:35:24;-1.30;99.90
21031;DHT22;61072;47.808;7.636;2023-02-08T09:37:55;-1.30;99.90
21031;DHT22;61072;47.808;7.636;2023-02-08T09:40:26;-1.30;99.90
21031;DHT22;61072;47.808;7.636;2023-02-08T09:45:55;-1.20;99.90
21031;DHT22;61072;47.808;7.636;2023-02-08T09:48:37;-1.20;99.90
21031;DHT22;61072;47.808;7.636;2023-02-08T09:51:28;-1.10;99.90
21031;DHT22;61072;47.808;7.636;2023-02-08T09:54:02;-1.10;99.90
21031;DHT22;61072;47.808;7.636;2023-02-08T09:56:35;-1.00;99.90
21031;DHT22;61072;47.808;7.636;2023-02-08T09:59:13;-0.90;99.90
21031;DHT22;61072;47.808;7.636;2023-02-08T10:01:41;-0.90;99.90
21031;DHT22;61072;47.808;7.636;2023-02-08T10:06:45;-0.90;99.90
21031;DHT22;61072;47.808;7.636;2023-02-08T10:09:19;-0.90;99.90
21031;DHT22;61072;47.808;7.636;2023-02-08T10:17:37;-0.70;99.90
21031;DHT22;61072;47.808;7.636;2023-02-08T10:20:17;-0.70;99.90
21031;DHT22;61072;47.808;7.636;2023-02-08T10:26:17;-0.60;99.90
21031;DHT22;61072;47.808;7.636;2023-02-08T10:28:56;-0.60;99.90
21031;DHT22;61072;47.808;7.636;2023-02-08T10:31:35;-0.60;99.90
21031;DHT22;61072;47.808;7.636;2023-02-08T10:36:50;-0.50;99.90
21031;DHT22;61072;47.808;7.636;2023-02-08T10:39:23;-0.40;99.90
21031;DHT22;61072;47.808;7.636;2023-02-08T10:41:51;-0.40;99.90
21031;DHT22;61072;47.808;7.636;2023-02-08T10:46:55;-0.40;99.90
21031;DHT22;61072;47.808;7.636;2023-02-08T10:51:55;-0.30;99.90
21031;DHT22;61072;47.808;7.636;2023-02-08T10:54:22;-0.20;99.90
21031;DHT22;61072;47.808;7.636;2023-02-08T10:56:53;-0.20;99.90
21031;DHT22;61072;47.808;7.636;2023-02-08T10:59:44;-0.20;99.90
21031;DHT22;61072;47.808;7.636;2023-02-08T11:02:49;-0.20;99.90
21031;DHT22;61072;47.808;7.636;2023-02-08T11:05:36;-0.10;99.90
21031;DHT22;61072;47.808;7.636;2023-02-08T11:08:13;-0.10;99.90
21031;DHT22;61072;47.808;7.636;2023-02-08T11:10:44;-0.10;99.90
21031;DHT22;61072;47.808;7.636;2023-02-08T11:15:51;-0.10;99.90
21031;DHT22;61072;47.808;7.636;2023-02-08T11:23:35;0.10;99.90
21031;DHT22;61072;47.808;7.636;2023-02-08T11:26:35;0.10;99.90
21031;DHT22;61072;47.808;7.636;2023-02-08T11:31:37;0.20;99.90
21031;DHT22;61072;47.808;7.636;2023-02-08T11:34:14;0.20;99.90
21031;DHT22;61072;47.808;7.636;2023-02-08T11:36:49;0.30;99.90
21031;DHT22;61072;47.808;7.636;2023-02-08T11:39:25;0.30;99.90
21031;DHT22;61072;47.808;7.636;2023-02-08T11:41:57;0.40;99.90
21031;DHT22;61072;47.808;7.636;2023-02-08T11:44:31;0.40;99.90
21031;DHT22;61072;47.808;7.636;2023-02-08T11:47:01;0.50;99.90
21031;DHT22;61072;47.808;7.636;2023-02-08T11:49:42;0.50;99.90
21031;DHT22;61072;47.808;7.636;2023-02-08T11:52:33;0.50;99.90
21031;DHT22;61072;47.808;7.636;2023-02-08T12:00:38;0.60;99.90
21031;DHT22;61072;47.808;7.636;2023-02-08T12:03:15;0.60;99.90
21031;DHT22;61072;47.808;7.636;2023-02-08T12:11:24;0.70;99.90
21031;DHT22;61072;47.808;7.636;2023-02-08T12:22:27;0.80;99.90
21031;DHT22;61072;47.808;7.636;2023-02-08T12:28:07;0.90;99.90
21031;DHT22;61072;47.808;7.636;2023-02-08T12:30:45;0.90;99.90
21031;DHT22;61072;47.808;7.636;2023-02-08T12:38:44;1.00;99.90
21031;DHT22;61072;47.808;7.636;2023-02-08T12:44:28;1.10;99.90
21031;DHT22;61072;47.808;7.636;2023-02-08T12:47:25;1.10;99.90
21031;DHT22;61072;47.808;7.636;2023-02-08T12:52:39;1.20;99.90
21031;DHT22;61072;47.808;7.636;2023-02-08T12:57:48;1.30;99.90
21031;DHT22;61072;47.808;7.636;2023-02-08T13:00:27;1.30;99.90
21031;DHT22;61072;47.808;7.636;2023-02-08T13:06:24;1.30;99.90
21031;DHT22;61072;47.808;7.636;2023-02-08T13:09:07;1.30;99.90
21031;DHT22;61072;47.808;7.636;2023-02-08T13:11:49;1.30;99.90
21031;DHT22;61072;47.808;7.636;2023-02-08T13:18:01;1.40;99.90
21031;DHT22;61072;47.808;7.636;2023-02-08T13:20:45;1.50;99.90
21031;DHT22;61072;47.808;7.636;2023-02-08T13:23:24;1.50;99.90
21031;DHT22;61072;47.808;7.636;2023-02-08T13:25:58;1.50;99.90
21031;DHT22;61072;47.808;7.636;2023-02-08T13:28:26;1.50;99.90
21031;DHT22;61072;47.808;7.636;2023-02-08T13:30:57;1.50;99.90
21031;DHT22;61072;47.808;7.636;2023-02-08T13:33:46;1.60;99.90
21031;DHT22;61072;47.808;7.636;2023-02-08T13:36:32;1.60;99.90
21031;DHT22;61072;47.808;7.636;2023-02-08T13:39:04;1.60;99.90
21031;DHT22;61072;47.808;7.636;2023-02-08T13:41:31;1.60;99.90
21031;DHT22;61072;47.808;7.636;2023-02-08T13:44:07;1.60;99.90
21031;DHT22;61072;47.808;7.636;2023-02-08T13:46:48;1.60;99.90
21031;DHT22;61072;47.808;7.636;2023-02-08T13:58:26;1.70;99.90
21031;DHT22;61072;47.808;7.636;2023-02-08T14:03:28;1.70;99.90
21031;DHT22;61072;47.808;7.636;2023-02-08T14:05:56;1.70;99.90
21031;DHT22;61072;47.808;7.636;2023-02-08T14:11:11;1.80;99.90
21031;DHT22;61072;47.808;7.636;2023-02-08T14:13:57;1.80;99.90
21031;DHT22;61072;47.808;7.636;2023-02-08T14:21:59;1.90;99.90
21031;DHT22;61072;47.808;7.636;2023-02-08T14:24:30;1.90;99.90
21031;DHT22;61072;47.808;7.636;2023-02-08T14:27:07;1.90;99.90
21031;DHT22;61072;47.808;7.636;2023-02-08T14:29:35;1.90;99.90
21031;DHT22;61072;47.808;7.636;2023-02-08T14:32:02;2.00;99.90
21031;DHT22;61072;47.808;7.636;2023-02-08T14:34:33;2.00;99.90
21031;DHT22;61072;47.808;7.636;2023-02-08T14:39:36;2.00;99.90
21031;DHT22;61072;47.808;7.636;2023-02-08T14:42:04;2.00;99.90
21031;DHT22;61072;47.808;7.636;2023-02-08T14:47:10;2.00;99.90
21031;DHT22;61072;47.808;7.636;2023-02-08T14:49:43;2.00;99.90
21031;DHT22;61072;47.808;7.636;2023-02-08T14:52:14;2.00;99.90
21031;DHT22;61072;47.808;7.636;2023-02-08T14:54:46;2.00;99.90
21031;DHT22;61072;47.808;7.636;2023-02-08T14:57:24;2.00;99.90
21031;DHT22;61072;47.808;7.636;2023-02-08T14:59:52;2.00;99.90
21031;DHT22;61072;47.808;7.636;2023-02-08T15:02:21;2.00;99.90
21031;DHT22;61072;47.808;7.636;2023-02-08T15:04:51;2.00;99.90
21031;DHT22;61072;47.808;7.636;2023-02-08T15:07:41;2.00;99.90
21031;DHT22;61072;47.808;7.636;2023-02-08T15:10:14;2.00;99.90
21031;DHT22;61072;47.808;7.636;2023-02-08T15:12:44;2.00;99.90
21031;DHT22;61072;47.808;7.636;2023-02-08T15:15:19;2.00;99.90
21031;DHT22;61072;47.808;7.636;2023-02-08T15:17:49;2.00;99.90
21031;DHT22;61072;47.808;7.636;2023-02-08T15:20:20;2.00;99.90
21031;DHT22;61072;47.808;7.636;2023-02-08T15:22:47;1.90;99.90
21031;DHT22;61072;47.808;7.636;2023-02-08T15:25:27;1.90;99.90
21031;DHT22;61072;47.808;7.636;2023-02-08T15:28:19;1.90;99.90
21031;DHT22;61072;47.808;7.636;2023-02-08T15:30:45;1.90;99.90
21031;DHT22;61072;47.808;7.636;2023-02-08T15:33:18;1.90;99.90
21031;DHT22;61072;47.808;7.636;2023-02-08T15:35:56;1.90;99.90
21031;DHT22;61072;47.808;7.636;2023-02-08T15:38:23;1.90;99.90
21031;DHT22;61072;47.808;7.636;2023-02-08T15:41:07;1.90;99.90
21031;DHT22;61072;47.808;7.636;2023-02-08T15:43:36;1.90;99.90
21031;DHT22;61072;47.808;7.636;2023-02-08T15:46:22;1.80;99.90
21031;DHT22;61072;47.808;7.636;2023-02-08T15:48:52;1.80;99.90
21031;DHT22;61072;47.808;7.636;2023-02-08T15:51:20;1.80;99.90
21031;DHT22;61072;47.808;7.636;2023-02-08T15:53:51;1.80;99.90
21031;DHT22;61072;47.808;7.636;2023-02-08T15:56:21;1.80;99.90
21031;DHT22;61072;47.808;7.636;2023-02-08T15:59:03;1.70;99.90
21031;DHT22;61072;47.808;7.636;2023-02-08T16:01:31;1.70;99.90
21031;DHT22;61072;47.808;7.636;2023-02-08T16:04:01;1.70;99.90
21031;DHT22;61072;47.808;7.636;2023-02-08T16:06:39;1.70;99.90
21031;DHT22;61072;47.808;7.636;2023-02-08T16:09:18;1.60;99.90
21031;DHT22;61072;47.808;7.636;2023-02-08T16:11:47;1.60;99.90
21031;DHT22;61072;47.808;7.636;2023-02-08T16:14:16;1.60;99.90
21031;DHT22;61072;47.808;7.636;2023-02-08T16:16:46;1.60;99.90
21031;DHT22;61072;47.808;7.636;2023-02-08T16:19:29;1.60;99.90
21031;DHT22;61072;47.808;7.636;2023-02-08T16:22:22;1.50;99.90
21031;DHT22;61072;47.808;7.636;2023-02-08T16:24:51;1.50;99.90
21031;DHT22;61072;47.808;7.636;2023-02-08T16:27:28;1.40;99.90
21031;DHT22;61072;47.808;7.636;2023-02-08T16:29:56;1.40;99.90
21031;DHT22;61072;47.808;7.636;2023-02-08T16:32:31;1.40;99.90
21031;DHT22;61072;47.808;7.636;2023-02-08T16:34:59;1.40;99.90
21031;DHT22;61072;47.808;7.636;2023-02-08T16:37:36;1.30;99.90
21031;DHT22;61072;47.808;7.636;2023-02-08T16:40:08;1.30;99.90
21031;DHT22;61072;47.808;7.636;2023-02-08T16:43:16;1.20;99.90
21031;DHT22;61072;47.808;7.636;2023-02-08T16:45:43;1.20;99.90
21031;DHT22;61072;47.808;7.636;2023-02-08T16:48:27;1.20;99.90
21031;DHT22;61072;47.808;7.636;2023-02-08T16:50:59;1.10;99.90
21031;DHT22;61072;47.808;7.636;2023-02-08T16:53:28;1.00;99.90
21031;DHT22;61072;47.808;7.636;2023-02-08T16:56:07;1.00;99.90
21031;DHT22;61072;47.808;7.636;2023-02-08T16:58:35;0.90;99.90
21031;DHT22;61072;47.808;7.636;2023-02-08T17:01:02;0.90;99.90
21031;DHT22;61072;47.808;7.636;2023-02-08T17:03:30;0.80;99.90
21031;DHT22;61072;47.808;7.636;2023-02-08T17:05:59;0.80;99.90
21031;DHT22;61072;47.808;7.636;2023-02-08T17:08:26;0.80;99.90
21031;DHT22;61072;47.808;7.636;2023-02-08T17:10:53;0.70;99.90
21031;DHT22;61072;47.808;7.636;2023-02-08T17:13:24;0.70;99.90
21031;DHT22;61072;47.808;7.636;2023-02-08T17:15:54;0.70;99.90
21031;DHT22;61072;47.808;7.636;2023-02-08T17:18:21;0.60;99.90
21031;DHT22;61072;47.808;7.636;2023-02-08T17:20:47;0.60;99.90
21031;DHT22;61072;47.808;7.636;2023-02-08T17:23:14;0.50;99.90
21031;DHT22;61072;47.808;7.636;2023-02-08T17:25:41;0.50;99.90
21031;DHT22;61072;47.808;7.636;2023-02-08T17:28:16;0.50;99.90
21031;DHT22;61072;47.808;7.636;2023-02-08T17:30:44;0.40;99.90
21031;DHT22;61072;47.808;7.636;2023-02-08T17:33:12;0.40;99.90
21031;DHT22;61072;47.808;7.636;2023-02-08T17:35:48;0.40;99.90
21031;DHT22;61072;47.808;7.636;2023-02-08T17:38:16;0.30;99.90
21031;DHT22;61072;47.808;7.636;2023-02-08T17:40:43;0.30;99.90
21031;DHT22;61072;47.808;7.636;2023-02-08T17:43:11;0.30;99.90
21031;DHT22;61072;47.808;7.636;2023-02-08T17:45:40;0.30;99.90
21031;DHT22;61072;47.808;7.636;2023-02-08T17:48:07;0.20;99.90
21031;DHT22;61072;47.808;7.636;2023-02-08T17:50:35;0.20;99.90
21031;DHT22;61072;47.808;7.636;2023-02-08T17:53:02;0.20;99.90
21031;DHT22;61072;47.808;7.636;2023-02-08T17:55:29;0.20;99.90
21031;DHT22;61072;47.808;7.636;2023-02-08T17:57:57;0.10;99.90
21031;DHT22;61072;47.808;7.636;2023-02-08T18:00:23;0.10;99.90
21031;DHT22;61072;47.808;7.636;2023-02-08T18:02:53;0.10;99.90
21031;DHT22;61072;47.808;7.636;2023-02-08T18:05:25;0.10;99.90
21031;DHT22;61072;47.808;7.636;2023-02-08T18:07:53;0.10;99.90
21031;DHT22;61072;47.808;7.636;2023-02-08T18:10:22;0.00;99.90
21031;DHT22;61072;47.808;7.636;2023-02-08T18:12:49;0.00;99.90
21031;DHT22;61072;47.808;7.636;2023-02-08T18:15:19;0.00;99.90
21031;DHT22;61072;47.808;7.636;2023-02-08T18:17:47;0.00;99.90